createdAt,value
2022-08-07T00:00:39.795Z,1.80
2022-08-07T00:03:08.778Z,2.00
2022-08-07T00:05:36.276Z,1.98
2022-08-07T00:08:05.647Z,2.10
2022-08-07T00:10:35.042Z,1.73
2022-08-07T00:13:17.397Z,2.20
2022-08-07T00:15:51.907Z,2.30
2022-08-07T00:18:23.964Z,2.10
2022-08-07T00:20:56.751Z,1.90
2022-08-07T00:23:24.209Z,2.20
2022-08-07T00:25:58.867Z,2.42
2022-08-07T00:28:33.224Z,2.30
2022-08-07T00:31:05.701Z,2.22
2022-08-07T00:33:33.787Z,2.30
2022-08-07T00:36:01.138Z,2.40
2022-08-07T00:38:31.359Z,2.00
2022-08-07T00:40:59.953Z,2.15
2022-08-07T00:44:00.495Z,2.17
2022-08-07T00:46:13.424Z,2.15
2022-08-07T00:48:42.342Z,2.72
2022-08-07T00:51:09.715Z,3.47
2022-08-07T00:53:38.844Z,1.90
2022-08-07T00:56:17.701Z,2.20
2022-08-07T00:58:47.363Z,2.33
2022-08-07T01:01:18.152Z,1.98
2022-08-07T01:03:56.411Z,2.13
2022-08-07T01:08:55.688Z,3.47
2022-08-07T01:12:27.578Z,2.20
2022-08-07T01:14:10.225Z,2.10
2022-08-07T01:16:37.507Z,2.40
2022-08-07T01:19:18.396Z,2.30
2022-08-07T01:21:53.159Z,2.28
2022-08-07T01:24:22.291Z,2.53
2022-08-07T01:26:54.177Z,2.20
2022-08-07T01:29:24.206Z,2.45
2022-08-07T01:31:55.344Z,2.33
2022-08-07T01:34:31.189Z,2.80
2022-08-07T01:37:00.811Z,2.70
2022-08-07T01:39:41.412Z,2.28
2022-08-07T01:42:38.292Z,2.47
2022-08-07T01:48:19.912Z,2.10
2022-08-07T01:50:28.838Z,2.33
2022-08-07T01:52:58.717Z,2.15
2022-08-07T01:55:28.314Z,2.15
2022-08-07T01:58:05.553Z,3.00
2022-08-07T02:00:49.927Z,2.00
2022-08-07T02:03:26.499Z,1.50
2022-08-07T02:06:08.928Z,2.30
2022-08-07T02:08:57.171Z,2.47
2022-08-07T02:11:30.897Z,2.95
2022-08-07T02:14:35.634Z,2.55
2022-08-07T02:17:06.080Z,2.55
2022-08-07T02:20:07.547Z,2.22
2022-08-07T02:22:25.713Z,2.30
2022-08-07T02:24:56.036Z,2.30
2022-08-07T02:27:25.302Z,3.15
2022-08-07T02:29:55.019Z,2.65
2022-08-07T02:32:29.971Z,2.55
2022-08-07T02:35:00.804Z,2.30
2022-08-07T02:37:36.081Z,2.40
2022-08-07T02:40:29.894Z,2.65
2022-08-07T02:42:59.201Z,2.17
2022-08-07T02:45:58.980Z,2.30
2022-08-07T02:48:17.103Z,3.15
2022-08-07T02:50:48.480Z,2.30
2022-08-07T02:53:38.509Z,2.50
2022-08-07T02:56:21.021Z,2.40
2022-08-07T02:58:51.348Z,2.35
2022-08-07T03:01:35.066Z,2.40
2022-08-07T03:04:13.067Z,2.10
2022-08-07T03:06:48.164Z,2.40
2022-08-07T03:09:41.864Z,2.35
2022-08-07T03:12:05.475Z,2.20
2022-08-07T03:14:36.010Z,2.45
2022-08-07T03:17:04.730Z,2.53
2022-08-07T03:19:36.771Z,2.60
2022-08-07T03:22:06.509Z,2.45
2022-08-07T03:24:34.779Z,2.45
2022-08-07T03:27:06.145Z,2.90
2022-08-07T03:29:49.632Z,2.60
2022-08-07T03:32:24.642Z,2.45
2022-08-07T03:35:16.874Z,2.70
2022-08-07T03:37:46.299Z,2.63
2022-08-07T03:40:22.159Z,2.58
2022-08-07T03:42:50.400Z,2.85
2022-08-07T03:45:30.413Z,2.60
2022-08-07T03:48:09.856Z,2.40
2022-08-07T03:50:38.638Z,2.65
2022-08-07T03:53:06.939Z,2.20
2022-08-07T03:55:53.045Z,3.15
2022-08-07T03:59:05.370Z,2.70
2022-08-07T04:01:14.751Z,2.80
2022-08-07T04:03:53.780Z,2.88
2022-08-07T04:06:37.698Z,2.88
2022-08-07T04:09:15.867Z,3.28
2022-08-07T04:12:26.249Z,3.22
2022-08-07T04:14:38.542Z,3.00
2022-08-07T04:17:20.287Z,3.42
2022-08-07T04:19:59.369Z,4.03
2022-08-07T04:22:29.629Z,3.40
2022-08-07T04:25:01.969Z,5.32
2022-08-07T04:27:35.452Z,4.73
2022-08-07T04:30:13.412Z,3.35
2022-08-07T04:33:00.523Z,4.00
2022-08-07T04:35:35.056Z,3.60
2022-08-07T04:38:09.078Z,3.55
2022-08-07T04:40:52.439Z,3.53
2022-08-07T04:44:09.965Z,5.15
2022-08-07T04:47:04.675Z,3.47
2022-08-07T04:49:38.765Z,3.88
2022-08-07T04:52:34.912Z,3.42
2022-08-07T04:58:13.694Z,3.42
2022-08-07T04:59:15.911Z,3.50
2022-08-07T05:01:36.497Z,4.40
2022-08-07T05:04:17.859Z,3.22
2022-08-07T05:06:58.365Z,3.17
2022-08-07T05:09:46.157Z,3.10
2022-08-07T05:12:26.901Z,3.72
2022-08-07T05:15:04.923Z,3.15
2022-08-07T05:17:52.018Z,3.08
2022-08-07T05:20:26.087Z,3.00
2022-08-07T05:23:02.089Z,3.55
2022-08-07T05:25:54.447Z,3.17
2022-08-07T05:28:23.332Z,2.92
2022-08-07T05:30:58.022Z,3.63
2022-08-07T05:33:28.699Z,3.08
2022-08-07T05:35:57.328Z,3.47
2022-08-07T05:38:59.634Z,3.20
2022-08-07T05:41:16.023Z,3.85
2022-08-07T05:44:11.845Z,3.13
2022-08-07T05:46:46.068Z,3.50
2022-08-07T05:49:22.780Z,3.58
2022-08-07T05:51:51.914Z,3.75
2022-08-07T05:54:30.927Z,3.03
2022-08-07T05:57:09.746Z,4.05
2022-08-07T05:59:39.041Z,3.90
2022-08-07T06:02:28.840Z,3.67
2022-08-07T06:05:03.470Z,4.00
2022-08-07T06:08:13.682Z,3.58
2022-08-07T06:10:20.317Z,3.58
2022-08-07T06:12:48.182Z,4.22
2022-08-07T06:15:19.721Z,4.25
2022-08-07T06:17:53.314Z,4.10
2022-08-07T06:20:25.507Z,4.00
2022-08-07T06:23:24.853Z,3.80
2022-08-07T06:25:57.097Z,4.20
2022-08-07T06:28:27.327Z,3.92
2022-08-07T06:30:56.402Z,3.78
2022-08-07T06:33:26.301Z,3.40
2022-08-07T06:36:13.533Z,3.17
2022-08-07T06:38:59.290Z,3.65
2022-08-07T06:42:02.284Z,3.47
2022-08-07T06:44:57.381Z,3.13
2022-08-07T06:47:26.884Z,3.20
2022-08-07T06:49:58.703Z,3.50
2022-08-07T06:52:36.589Z,3.30
2022-08-07T06:55:31.625Z,3.10
2022-08-07T06:58:04.472Z,2.78
2022-08-07T07:00:38.573Z,3.00
2022-08-07T07:03:08.647Z,2.83
2022-08-07T07:06:02.385Z,2.92
2022-08-07T07:08:29.905Z,3.28
2022-08-07T07:11:01.204Z,4.55
2022-08-07T07:13:57.439Z,3.60
2022-08-07T07:16:34.041Z,3.50
2022-08-07T07:19:56.553Z,2.90
2022-08-07T07:22:05.014Z,3.70
2022-08-07T07:24:57.016Z,3.15
2022-08-07T07:27:35.648Z,3.50
2022-08-07T07:30:32.355Z,3.63
2022-08-07T07:33:06.153Z,3.17
2022-08-07T07:35:54.402Z,3.27
2022-08-07T07:38:23.970Z,2.30
2022-08-07T07:40:51.687Z,2.83
2022-08-07T07:43:27.709Z,2.60
2022-08-07T07:46:53.445Z,2.22
2022-08-07T07:49:00.035Z,1.70
2022-08-07T07:51:58.216Z,1.77
2022-08-07T07:54:25.300Z,1.15
2022-08-07T07:56:55.143Z,1.33
2022-08-07T07:59:51.711Z,1.35
2022-08-07T08:02:22.633Z,1.40
2022-08-07T08:05:11.494Z,1.40
2022-08-07T08:07:59.903Z,1.58
2022-08-07T08:10:38.095Z,1.40
2022-08-07T08:13:10.489Z,1.60
2022-08-07T08:15:58.596Z,1.33
2022-08-07T08:18:27.793Z,1.23
2022-08-07T08:20:57.091Z,1.20
2022-08-07T08:23:24.326Z,1.17
2022-08-07T08:25:57.403Z,0.82
2022-08-07T08:28:38.225Z,0.80
2022-08-07T08:31:14.639Z,1.10
2022-08-07T08:33:49.422Z,1.00
2022-08-07T08:36:19.104Z,1.00
2022-08-07T08:38:55.811Z,1.08
2022-08-07T08:41:31.445Z,1.10
2022-08-07T08:44:29.613Z,0.90
2022-08-07T08:47:25.680Z,0.75
2022-08-07T08:50:28.624Z,0.90
2022-08-07T08:53:12.588Z,0.80
2022-08-07T08:55:53.348Z,1.05
2022-08-07T08:58:50.599Z,0.88
2022-08-07T09:01:40.084Z,0.63
2022-08-07T09:04:16.951Z,1.25
2022-08-07T09:07:23.026Z,0.90
2022-08-07T09:10:10.558Z,0.90
2022-08-07T09:12:53.730Z,0.80
2022-08-07T09:16:25.296Z,0.73
2022-08-07T09:18:58.153Z,0.70
2022-08-07T09:22:09.682Z,0.90
2022-08-07T09:24:59.748Z,1.38
2022-08-07T09:27:54.585Z,0.88
2022-08-07T09:30:27.892Z,1.00
2022-08-07T09:33:24.520Z,1.13
2022-08-07T09:36:18.528Z,1.20
2022-08-07T09:39:06.334Z,1.20
2022-08-07T09:42:02.921Z,0.80
2022-08-07T09:47:49.986Z,1.05
2022-08-07T09:48:02.486Z,0.80
2022-08-07T09:50:53.676Z,0.68
2022-08-07T09:53:22.467Z,0.75
2022-08-07T09:56:03.326Z,0.75
2022-08-07T09:59:05.271Z,0.77
2022-08-07T10:01:51.739Z,1.02
2022-08-07T10:04:47.698Z,0.80
2022-08-07T10:07:53.103Z,0.80
2022-08-07T10:11:16.481Z,0.77
2022-08-07T10:14:01.475Z,0.77
2022-08-07T10:16:49.735Z,0.80
2022-08-07T10:19:37.747Z,1.13
2022-08-07T10:22:45.363Z,0.95
2022-08-07T10:25:24.011Z,0.68
2022-08-07T10:28:41.399Z,0.82
2022-08-07T10:31:38.469Z,0.90
2022-08-07T10:34:32.147Z,0.90
2022-08-07T10:37:48.576Z,1.00
2022-08-07T10:40:30.096Z,0.80
2022-08-07T10:43:29.748Z,0.70
2022-08-07T10:46:11.788Z,0.90
2022-08-07T10:49:24.545Z,1.05
2022-08-07T10:52:13.832Z,0.80
2022-08-07T10:55:36.919Z,0.80
2022-08-07T10:58:52.029Z,0.80
2022-08-07T11:01:51.717Z,0.90
2022-08-07T11:04:34.553Z,0.75
2022-08-07T11:08:00.284Z,0.90
2022-08-07T11:10:24.301Z,0.90
2022-08-07T11:13:42.362Z,0.73
2022-08-07T11:15:59.650Z,0.80
2022-08-07T11:18:56.260Z,0.88
2022-08-07T11:21:40.823Z,0.85
2022-08-07T11:24:21.964Z,0.70
2022-08-07T11:27:01.914Z,0.70
2022-08-07T11:29:48.343Z,1.10
2022-08-07T11:32:43.343Z,0.77
2022-08-07T11:35:26.728Z,0.70
2022-08-07T11:37:57.975Z,0.80
2022-08-07T11:40:56.122Z,0.90
2022-08-07T11:43:29.731Z,1.00
2022-08-07T11:46:18.236Z,0.75
2022-08-07T11:49:50.390Z,0.70
2022-08-07T11:52:28.945Z,0.80
2022-08-07T11:55:12.921Z,0.77
2022-08-07T11:58:00.504Z,3.33
2022-08-07T12:00:40.366Z,0.90
2022-08-07T12:03:41.376Z,1.30
2022-08-07T12:06:39.920Z,2.10
2022-08-07T12:09:37.511Z,1.90
2022-08-07T12:12:12.106Z,1.08
2022-08-07T12:14:56.259Z,0.80
2022-08-07T12:17:39.205Z,0.65
2022-08-07T12:20:30.862Z,0.90
2022-08-07T12:24:05.069Z,0.85
2022-08-07T12:26:35.502Z,0.90
2022-08-07T12:29:38.376Z,0.80
2022-08-07T12:32:20.737Z,0.90
2022-08-07T12:34:55.657Z,0.80
2022-08-07T12:37:28.115Z,0.90
2022-08-07T12:40:36.245Z,0.75
2022-08-07T12:43:03.392Z,1.33
2022-08-07T12:46:26.475Z,2.00
2022-08-07T12:49:51.188Z,1.83
2022-08-07T12:52:41.458Z,1.20
2022-08-07T12:55:40.665Z,1.17
2022-08-07T12:58:13.037Z,1.38
2022-08-07T13:01:00.348Z,1.88
2022-08-07T13:03:59.106Z,2.67
2022-08-07T13:06:54.437Z,2.88
2022-08-07T13:10:21.958Z,1.30
2022-08-07T13:13:10.061Z,2.42
2022-08-07T13:15:47.063Z,1.52
2022-08-07T13:18:50.738Z,1.00
2022-08-07T13:21:23.593Z,0.83
2022-08-07T13:24:18.529Z,1.23
2022-08-07T13:26:53.894Z,0.80
2022-08-07T13:29:27.097Z,1.00
2022-08-07T13:32:31.428Z,0.90
2022-08-07T13:35:11.607Z,1.20
2022-08-07T13:38:01.600Z,1.80
2022-08-07T13:40:42.738Z,1.50
2022-08-07T13:43:16.052Z,1.08
2022-08-07T13:46:11.893Z,0.82
2022-08-07T13:48:38.614Z,1.73
2022-08-07T13:51:27.102Z,1.10
2022-08-07T13:54:01.975Z,1.38
2022-08-07T13:56:35.926Z,1.38
2022-08-07T13:59:28.382Z,1.23
2022-08-07T14:02:04.456Z,1.02
2022-08-07T14:04:35.648Z,1.10
2022-08-07T14:07:09.728Z,1.40
2022-08-07T14:10:01.912Z,0.68
2022-08-07T14:12:55.587Z,1.20
2022-08-07T14:15:43.683Z,0.90
2022-08-07T14:18:28.963Z,1.00
2022-08-07T14:21:11.690Z,0.73
2022-08-07T14:24:02.016Z,0.98
2022-08-07T14:26:52.959Z,0.88
2022-08-07T14:32:13.431Z,0.70
2022-08-07T14:34:46.442Z,1.67
2022-08-07T14:37:16.834Z,1.25
2022-08-07T14:42:33.939Z,1.80
2022-08-07T14:45:21.977Z,0.85
2022-08-07T14:47:51.353Z,1.08
2022-08-07T14:50:26.631Z,0.90
2022-08-07T14:52:55.518Z,0.85
2022-08-07T14:55:27.530Z,0.90
2022-08-07T14:57:59.433Z,0.85
2022-08-07T15:00:31.318Z,0.90
2022-08-07T15:02:59.320Z,0.82
2022-08-07T15:05:30.368Z,0.80
2022-08-07T15:07:59.880Z,0.73
2022-08-07T15:13:20.138Z,0.60
2022-08-07T15:15:52.536Z,0.90
2022-08-07T15:18:34.896Z,0.75
2022-08-07T15:21:44.321Z,0.82
2022-08-07T15:27:08.220Z,0.98
2022-08-07T15:30:06.818Z,0.88
2022-08-07T15:32:39.512Z,1.05
2022-08-07T15:35:17.826Z,0.88
2022-08-07T15:40:38.437Z,0.82
2022-08-07T15:52:02.361Z,1.02
2022-08-07T15:54:39.433Z,0.60
2022-08-07T15:57:10.803Z,1.33
2022-08-07T16:02:46.680Z,0.95
2022-08-07T16:05:16.537Z,1.08
2022-08-07T16:08:30.846Z,0.80
2022-08-07T16:10:36.824Z,0.80
2022-08-07T16:13:17.587Z,0.68
2022-08-07T16:16:06.868Z,0.70
2022-08-07T16:19:03.493Z,1.05
2022-08-07T16:22:05.532Z,0.90
2022-08-07T16:24:52.310Z,0.80
2022-08-07T16:27:40.550Z,0.65
2022-08-07T16:30:30.580Z,0.90
2022-08-07T16:34:01.373Z,0.73
2022-08-07T16:36:31.100Z,0.60
2022-08-07T16:39:40.298Z,1.50
2022-08-07T16:42:27.980Z,0.70
2022-08-07T16:46:21.192Z,0.90
2022-08-07T16:48:27.735Z,0.75
2022-08-07T16:51:57.701Z,1.10
2022-08-07T16:54:38.221Z,0.90
2022-08-07T16:58:02.060Z,0.85
2022-08-07T17:00:29.451Z,1.23
2022-08-07T17:03:17.434Z,0.77
2022-08-07T17:06:35.887Z,1.00
2022-08-07T17:10:07.888Z,0.85
2022-08-07T17:12:35.875Z,0.80
2022-08-07T17:15:19.365Z,0.80
2022-08-07T17:17:48.661Z,1.23
2022-08-07T17:23:14.640Z,2.58
2022-08-07T17:26:23.528Z,1.17
2022-08-07T17:30:16.084Z,0.75
2022-08-07T17:32:35.206Z,2.38
2022-08-07T17:35:55.215Z,1.23
2022-08-07T17:38:52.716Z,1.13
2022-08-07T17:42:02.121Z,1.17
2022-08-07T17:44:42.793Z,1.15
2022-08-07T17:47:42.211Z,1.20
2022-08-07T17:50:21.189Z,1.50
2022-08-07T17:53:09.536Z,1.30
2022-08-07T17:56:15.363Z,1.20
2022-08-07T17:58:56.772Z,0.98
2022-08-07T18:01:36.765Z,1.65
2022-08-07T18:04:31.172Z,1.20
2022-08-07T18:07:34.094Z,1.38
2022-08-07T18:11:17.253Z,1.43
2022-08-07T18:14:01.650Z,1.20
2022-08-07T18:16:57.883Z,1.10
2022-08-07T18:21:11.869Z,1.30
2022-08-07T18:22:38.854Z,1.33
2022-08-07T18:25:19.309Z,1.40
2022-08-07T18:28:35.283Z,1.30
2022-08-07T18:31:18.447Z,1.30
2022-08-07T18:34:37.467Z,1.73
2022-08-07T18:38:58.569Z,1.50
2022-08-07T18:40:53.828Z,1.30
2022-08-07T18:43:37.296Z,1.50
2022-08-07T18:46:24.480Z,1.40
2022-08-07T18:50:32.458Z,1.52
2022-08-07T18:52:54.325Z,1.50
2022-08-07T18:55:43.192Z,1.50
2022-08-07T18:58:40.443Z,1.58
2022-08-07T19:02:34.075Z,1.60
2022-08-07T19:04:25.078Z,1.55
2022-08-07T19:07:08.286Z,1.63
2022-08-07T19:09:56.659Z,1.50
2022-08-07T19:12:48.626Z,1.20
2022-08-07T19:16:03.109Z,1.13
2022-08-07T19:18:34.136Z,1.20
2022-08-07T19:21:45.057Z,1.63
2022-08-07T19:24:30.787Z,1.10
2022-08-07T19:28:30.536Z,1.40
2022-08-07T19:31:03.259Z,0.93
2022-08-07T19:32:46.461Z,2.00
2022-08-07T19:37:57.611Z,1.30
2022-08-07T19:40:33.283Z,1.20
2022-08-07T19:43:21.784Z,1.20
2022-08-07T19:46:10.472Z,1.52
2022-08-07T19:48:42.225Z,1.20
2022-08-07T19:51:19.935Z,0.80
2022-08-07T19:54:35.359Z,1.30
2022-08-07T19:57:59.878Z,1.10
2022-08-07T19:59:41.589Z,1.10
2022-08-07T20:02:19.098Z,1.30
2022-08-07T20:04:50.088Z,1.85
2022-08-07T20:07:23.416Z,1.40
2022-08-07T20:10:34.350Z,1.10
2022-08-07T20:12:45.150Z,1.33
2022-08-07T20:15:22.338Z,1.60
2022-08-07T20:18:01.668Z,1.27
2022-08-07T20:20:32.664Z,1.48
2022-08-07T20:23:23.446Z,1.23
2022-08-07T20:25:55.579Z,1.27
2022-08-07T20:28:29.684Z,1.17
2022-08-07T20:30:59.018Z,1.50
2022-08-07T20:33:36.596Z,1.80
2022-08-07T20:36:07.834Z,1.50
2022-08-07T20:38:59.569Z,1.50
2022-08-07T20:41:28.061Z,1.80
2022-08-07T20:44:02.622Z,1.60
2022-08-07T20:46:34.594Z,1.58
2022-08-07T20:49:58.244Z,1.67
2022-08-07T20:51:58.940Z,1.70
2022-08-07T20:54:29.824Z,1.85
2022-08-07T20:57:04.170Z,2.78
2022-08-07T21:00:06.736Z,1.83
2022-08-07T21:02:27.750Z,1.67
2022-08-07T21:04:55.124Z,2.83
2022-08-07T21:07:27.007Z,2.97
2022-08-07T21:10:00.174Z,2.30
2022-08-07T21:12:31.579Z,2.08
2022-08-07T21:15:02.854Z,2.55
2022-08-07T21:18:03.203Z,1.90
2022-08-07T21:20:26.548Z,1.70
2022-08-07T21:22:58.388Z,1.60
2022-08-07T21:25:38.770Z,1.40
2022-08-07T21:28:50.249Z,1.55
2022-08-07T21:31:10.887Z,1.80
2022-08-07T21:33:54.666Z,1.52
2022-08-07T21:36:34.425Z,1.70
2022-08-07T21:39:47.714Z,1.73
2022-08-07T21:42:48.727Z,2.05
2022-08-07T21:46:07.611Z,1.40
2022-08-07T21:48:41.527Z,1.50
2022-08-07T21:51:27.710Z,1.50
2022-08-07T21:54:25.684Z,1.63
2022-08-07T21:57:31.460Z,1.50
2022-08-07T22:00:22.113Z,2.20
2022-08-07T22:03:08.579Z,1.70
2022-08-07T22:05:49.119Z,1.63
2022-08-07T22:08:20.992Z,1.50
2022-08-07T22:10:53.585Z,1.80
2022-08-07T22:13:24.190Z,1.50
2022-08-07T22:16:40.038Z,1.55
2022-08-07T22:19:11.998Z,1.65
2022-08-07T22:22:05.157Z,1.63
2022-08-07T22:24:50.111Z,1.20
2022-08-07T22:27:21.241Z,1.77
2022-08-07T22:30:12.375Z,1.20
2022-08-07T22:33:06.552Z,1.52
2022-08-07T22:35:57.978Z,1.20
2022-08-07T22:38:42.030Z,1.52
2022-08-07T22:41:22.050Z,11.85
2022-08-07T22:44:12.910Z,7.53
2022-08-07T22:47:23.511Z,1.92
2022-08-07T22:50:33.025Z,1.67
2022-08-07T22:54:06.429Z,1.38
2022-08-07T22:56:37.587Z,1.60
2022-08-07T22:59:13.319Z,1.58
2022-08-07T23:02:19.845Z,1.50
2022-08-07T23:06:06.948Z,1.60
2022-08-07T23:08:24.533Z,1.30
2022-08-07T23:11:18.328Z,1.50
2022-08-07T23:14:14.677Z,1.55
2022-08-07T23:17:20.474Z,1.90
2022-08-07T23:20:21.697Z,1.90
2022-08-07T23:24:05.824Z,1.85
2022-08-07T23:26:25.014Z,1.80
2022-08-07T23:30:36.284Z,1.50
2022-08-07T23:34:24.043Z,1.40
2022-08-07T23:35:43.440Z,1.30
2022-08-07T23:38:42.820Z,1.73
2022-08-07T23:42:04.381Z,1.52
2022-08-07T23:45:03.049Z,1.75
2022-08-07T23:47:47.856Z,1.92
2022-08-07T23:50:17.805Z,1.50
2022-08-07T23:53:15.382Z,1.48
2022-08-07T23:55:52.123Z,1.50
2022-08-07T23:58:37.598Z,1.65
